Terminal Aerodrome Forecast
Issued by NWS Greer, SC

Home | Current Version | Previous Version | Text Only | Print | Product List | Glossary On
Versions: 1 2 3 4 5 6 7 8 9 10 11 12 13 14 15 16 17 18 19 20 21 22 23 24 25 26 27 28 29 30 31 32 33 34 35 36 37
000
FTUS42 KGSP 202300
TAFAVL
TAF
KAVL 202337Z 2100/2124 00000KT P6SM SCT060 BKN250
     FM210800 34003KT 3SM BR SCT120 BKN250
     FM211300 34005KT P6SM SCT250
     FM211600 34006KT P6SM SCT050
     FM211800 32006KT P6SM BKN050 PROB30 2118/2124 4SM TSRA
      BKN040CB=

USA.gov is the U.S. government's official web portal to all federal, state and local government web resources and services.